Time;durP1;ratioP1;P1;durP2;ratioP2;P2;SDS_P1;SDS_P2;PMS_P1;PMS_P2;Temp;Humidity;BMP_temperature;BMP_pressure;BME280_temperature;BME280_humidity;BME280_pressure;Samples;Min_cycle;Max_cycle;Signal;HPM_P1;HPM_P2
2022/07/30 00:02:08;;;;;;;4.10;3.70;;;17.20;99.90;;;;;;5019723;28;20780;-86
2022/07/30 00:04:34;;;;;;;6.97;3.90;;;17.20;99.90;;;;;;5019979;28;20205;-88
2022/07/30 00:06:59;;;;;;;4.27;3.77;;;17.10;99.90;;;;;;5022663;28;20433;-88
2022/07/30 00:09:25;;;;;;;4.83;3.60;;;17.10;99.90;;;;;;5015907;28;20190;-87
2022/07/30 00:11:51;;;;;;;4.73;3.93;;;17.00;99.90;;;;;;5019071;28;20928;-89
2022/07/30 00:14:16;;;;;;;5.13;4.10;;;17.00;99.90;;;;;;5023934;28;20182;-88
2022/07/30 00:16:42;;;;;;;4.20;3.80;;;19.10;99.90;;;;;;5017937;28;20505;-89
2022/07/30 00:19:08;;;;;;;4.53;4.13;;;16.90;99.90;;;;;;5019149;28;20205;-87
2022/07/30 00:21:34;;;;;;;4.13;3.63;;;16.90;99.90;;;;;;5015397;28;20189;-88
2022/07/30 00:24:01;;;;;;;5.23;4.00;;;17.00;99.90;;;;;;5014253;28;20482;-87
2022/07/30 00:26:26;;;;;;;4.77;3.20;;;16.90;99.90;;;;;;5015686;28;20770;-88
2022/07/30 00:28:52;;;;;;;6.10;4.40;;;16.90;99.90;;;;;;5014694;28;20554;-88
2022/07/30 00:31:17;;;;;;;5.23;3.97;;;16.80;99.90;;;;;;5017645;28;20202;-88
2022/07/30 00:33:43;;;;;;;6.23;4.07;;;16.70;99.90;;;;;;5033603;28;20750;-88
2022/07/30 00:36:08;;;;;;;5.20;4.43;;;16.60;99.90;;;;;;5021956;28;20175;-86
2022/07/30 00:38:34;;;;;;;4.70;4.30;;;16.60;99.90;;;;;;5012238;28;20220;-88
2022/07/30 00:40:59;;;;;;;5.43;4.00;;;16.60;99.90;;;;;;5016954;28;20182;-88
2022/07/30 00:43:25;;;;;;;4.83;4.33;;;16.50;99.90;;;;;;5014620;28;20178;-88
2022/07/30 00:45:50;;;;;;;6.20;4.10;;;16.50;99.90;;;;;;5031065;28;20197;-88
2022/07/30 00:48:16;;;;;;;5.47;3.73;;;16.60;99.90;;;;;;5013090;28;20179;-88
2022/07/30 00:50:42;;;;;;;3.67;3.37;;;16.60;99.90;;;;;;5012878;28;20196;-89
2022/07/30 00:53:08;;;;;;;4.40;4.00;;;16.70;99.90;;;;;;5014543;28;20261;-88
2022/07/30 00:55:34;;;;;;;4.60;3.70;;;16.70;99.90;;;;;;5031534;28;20189;-87
2022/07/30 00:58:00;;;;;;;5.83;4.20;;;16.70;99.90;;;;;;5010515;28;20579;-89
2022/07/30 01:00:26;;;;;;;6.00;3.50;;;17.90;99.90;;;;;;5014817;28;20464;-88
2022/07/30 01:02:52;;;;;;;6.60;4.60;;;16.60;99.90;;;;;;5014734;28;20428;-89
2022/07/30 01:05:18;;;;;;;5.90;4.90;;;;;;;;;;5039326;28;20429;-89
2022/07/30 01:07:44;;;;;;;6.07;4.90;;;16.70;99.90;;;;;;5024065;28;20950;-88
2022/07/30 01:10:13;;;;;;;6.30;4.63;;;17.20;99.90;;;;;;5022160;28;21027;-88
2022/07/30 01:12:39;;;;;;;5.33;4.53;;;17.20;99.90;;;;;;5036648;28;20184;-88
2022/07/30 01:15:08;;;;;;;4.30;3.90;;;17.50;99.90;;;;;;5016897;28;20429;-90
2022/07/30 01:17:34;;;;;;;7.40;3.57;;;17.60;99.90;;;;;;5023220;28;20492;-89
2022/07/30 01:20:16;;;;;;;4.97;4.47;;;18.00;99.90;;;;;;5030233;28;20451;-88
2022/07/30 01:23:03;;;;;;;6.23;4.63;;;17.90;99.90;;;;;;5030414;28;20480;-90
2022/07/30 01:26:00;;;;;;;4.77;4.37;;;17.90;99.90;;;;;;5018919;28;20542;-88
2022/07/30 01:28:30;;;;;;;4.10;3.70;;;17.90;99.90;;;;;;5017829;28;20421;-89
2022/07/30 01:30:57;;;;;;;4.87;4.47;;;18.10;99.90;;;;;;5011025;28;20457;-89
2022/07/30 01:33:24;;;;;;;5.23;3.97;;;18.00;99.90;;;;;;5014198;28;20426;-88
2022/07/30 01:35:51;;;;;;;5.53;4.63;;;18.40;99.90;;;;;;5014783;28;20432;-88
2022/07/30 01:38:21;;;;;;;5.93;4.63;;;18.10;99.90;;;;;;5032375;28;20925;-87
2022/07/30 01:40:52;;;;;;;6.83;6.10;;;18.30;99.90;;;;;;5033251;28;20810;-89
2022/07/30 01:43:20;;;;;;;5.53;5.03;;;18.50;99.90;;;;;;5032153;28;20437;-87
2022/07/30 01:45:47;;;;;;;12.30;5.67;;;18.50;99.90;;;;;;5033273;28;20517;-87
2022/07/30 01:48:15;;;;;;;8.07;6.53;;;18.70;99.90;;;;;;5019281;28;20460;-88
2022/07/30 01:50:45;;;;;;;8.93;5.50;;;18.60;99.90;;;;;;5018682;28;20502;-88
2022/07/30 01:53:17;;;;;;;7.30;6.43;;;18.60;99.90;;;;;;5024864;28;20491;-87
2022/07/30 01:55:44;;;;;;;8.47;5.93;;;18.60;99.90;;;;;;5027018;28;20980;-88
2022/07/30 01:58:11;;;;;;;8.50;5.03;;;18.60;99.90;;;;;;5019163;28;20416;-87
2022/07/30 02:00:39;;;;;;;6.80;5.53;;;18.60;99.90;;;;;;5045329;28;20780;-88
2022/07/30 02:03:07;;;;;;;6.97;5.57;;;18.50;99.90;;;;;;5017618;28;20454;-88
2022/07/30 02:05:34;;;;;;;10.07;6.40;;;18.20;99.90;;;;;;5014361;28;20436;-86
2022/07/30 02:08:29;;;;;;;7.40;5.77;;;18.20;99.90;;;;;;5030532;28;20433;-87
2022/07/30 02:11:05;;;;;;;7.20;6.27;;;18.00;99.90;;;;;;5011812;28;20536;-87
2022/07/30 02:13:32;;;;;;;6.90;6.20;;;18.00;99.90;;;;;;5029561;28;20451;-88
2022/07/30 02:16:12;;;;;;;14.23;6.70;;;19.20;99.90;;;;;;5030578;28;20416;-87
2022/07/30 02:18:46;;;;;;;6.37;5.60;;;17.40;99.90;;;;;;5011414;28;20470;-86
2022/07/30 02:21:12;;;;;;;7.93;6.30;;;17.80;99.90;;;;;;5030390;28;20463;-85
2022/07/30 02:23:42;;;;;;;10.83;6.23;;;21.50;99.90;;;;;;5015593;28;20524;-85
2022/07/30 02:26:11;;;;;;;11.97;5.73;;;18.00;99.90;;;;;;5033572;28;20428;-85
2022/07/30 02:28:39;;;;;;;6.87;5.40;;;18.30;99.90;;;;;;5016321;28;20474;-88
2022/07/30 02:31:08;;;;;;;8.30;5.70;;;18.40;99.90;;;;;;5016233;28;20506;-87
2022/07/30 02:33:38;;;;;;;7.77;6.07;;;18.50;99.90;;;;;;5011660;28;20439;-88
2022/07/30 02:36:06;;;;;;;7.17;5.77;;;18.50;99.90;;;;;;5027931;28;20433;-86
2022/07/30 02:38:33;;;;;;;7.23;5.00;;;18.60;99.90;;;;;;5020723;28;20452;-86
2022/07/30 02:41:00;;;;;;;6.47;5.10;;;18.60;99.90;;;;;;5013038;28;20483;-86
2022/07/30 02:43:27;;;;;;;6.27;5.10;;;18.60;99.90;;;;;;5023007;28;20433;-86
2022/07/30 02:45:52;;;;;;;10.37;5.20;;;18.60;99.90;;;;;;5013607;28;20453;-86
2022/07/30 02:48:20;;;;;;;8.00;4.57;;;18.60;99.90;;;;;;5003603;28;20443;-86
2022/07/30 02:50:52;;;;;;;15.50;6.10;;;19.90;99.90;;;;;;5022491;28;20206;-86
2022/07/30 02:53:19;;;;;;;7.57;5.00;;;18.60;99.90;;;;;;5012411;28;20429;-86
2022/07/30 02:55:47;;;;;;;7.07;4.50;;;20.60;99.90;;;;;;5014470;28;20444;-87
2022/07/30 02:58:18;;;;;;;10.10;5.23;;;18.60;99.90;;;;;;5025578;28;20436;-86
2022/07/30 03:00:45;;;;;;;9.20;4.57;;;18.60;99.90;;;;;;5013584;28;20436;-86
2022/07/30 03:03:12;;;;;;;6.93;4.57;;;18.50;99.90;;;;;;5031073;28;20598;-87
2022/07/30 03:05:39;;;;;;;6.93;5.30;;;18.60;99.90;;;;;;5017796;28;20443;-87
2022/07/30 03:08:07;;;;;;;6.77;5.10;;;18.60;99.90;;;;;;5018101;28;20523;-87
2022/07/30 03:10:34;;;;;;;8.17;5.33;;;18.50;99.90;;;;;;5032415;28;20447;-87
2022/07/30 03:13:01;;;;;;;7.60;4.43;;;18.60;99.90;;;;;;5030435;28;20451;-87
2022/07/30 03:15:28;;;;;;;8.50;5.17;;;18.60;99.90;;;;;;5009115;28;20774;-88
2022/07/30 03:17:56;;;;;;;10.53;5.20;;;18.60;99.90;;;;;;5017673;28;20716;-87
2022/07/30 03:20:26;;;;;;;6.70;5.10;;;18.50;99.90;;;;;;5028258;28;20461;-88
2022/07/30 03:22:53;;;;;;;12.70;4.20;;;18.60;99.90;;;;;;5026342;28;20497;-89
2022/07/30 03:25:23;;;;;;;8.47;4.37;;;18.50;99.90;;;;;;5034757;28;20448;-88
2022/07/30 03:27:50;;;;;;;7.13;5.00;;;18.70;99.90;;;;;;5044243;28;20416;-86
2022/07/30 03:30:15;;;;;;;5.20;3.90;;;18.70;99.90;;;;;;5044095;28;20463;-88
2022/07/30 03:32:42;;;;;;;6.63;4.20;;;18.60;99.90;;;;;;5026718;28;20416;-86
2022/07/30 03:35:08;;;;;;;6.47;3.97;;;18.50;99.90;;;;;;5044928;28;20166;-89
2022/07/30 03:37:37;;;;;;;8.30;4.00;;;18.50;99.90;;;;;;5022429;28;20451;-88
2022/07/30 03:40:04;;;;;;;7.07;3.50;;;18.60;99.90;;;;;;5027506;28;20455;-88
2022/07/30 03:42:31;;;;;;;6.60;4.20;;;18.50;99.90;;;;;;5027221;28;20416;-86
2022/07/30 03:44:56;;;;;;;7.67;3.80;;;18.70;99.90;;;;;;5026694;28;20467;-87
2022/07/30 03:47:23;;;;;;;7.87;3.90;;;18.70;99.90;;;;;;5044355;28;20419;-86
2022/07/30 03:49:51;;;;;;;7.97;4.47;;;18.70;99.90;;;;;;5031960;28;20460;-85
2022/07/30 03:52:17;;;;;;;6.70;4.10;;;18.70;99.90;;;;;;5017467;28;20437;-90
2022/07/30 03:54:44;;;;;;;10.27;3.60;;;18.70;99.90;;;;;;5033082;28;20966;-87
2022/07/30 03:57:10;;;;;;;7.17;5.07;;;18.70;99.90;;;;;;5013540;28;20499;-87
2022/07/30 03:59:35;;;;;;;6.13;4.70;;;18.90;99.90;;;;;;5023849;28;20450;-87
2022/07/30 04:02:02;;;;;;;5.83;4.27;;;18.90;99.90;;;;;;5031922;28;20596;-87
2022/07/30 04:04:29;;;;;;;5.13;3.77;;;18.90;99.90;;;;;;5019392;28;20165;-90
2022/07/30 04:06:56;;;;;;;6.90;4.23;;;18.90;99.90;;;;;;5023196;28;21013;-90
2022/07/30 04:09:21;;;;;;;6.63;3.93;;;19.40;99.90;;;;;;5042727;28;20446;-88
2022/07/30 04:11:47;;;;;;;8.60;4.13;;;19.00;99.90;;;;;;5041508;28;20519;-89
2022/07/30 04:14:12;;;;;;;5.47;4.23;;;18.90;99.90;;;;;;5043897;28;20654;-89
2022/07/30 04:17:00;;;;;;;8.00;4.43;;;19.90;99.90;;;;;;5001532;28;20205;-86
2022/07/30 04:19:33;;;;;;;8.40;4.13;;;18.90;99.90;;;;;;5042458;28;20424;-87
2022/07/30 04:22:01;;;;;;;7.73;4.23;;;19.00;99.90;;;;;;5031044;28;20479;-86
2022/07/30 04:24:29;;;;;;;6.37;4.47;;;18.90;99.90;;;;;;5025511;28;20428;-88
2022/07/30 04:26:57;;;;;;;12.00;4.40;;;19.00;99.90;;;;;;5050202;28;20424;-86
2022/07/30 04:29:23;;;;;;;6.57;4.30;;;19.00;99.90;;;;;;5030502;28;20440;-86
2022/07/30 04:31:48;;;;;;;11.27;4.83;;;19.10;99.90;;;;;;5041493;28;20463;-86
2022/07/30 04:34:14;;;;;;;5.40;4.80;;;19.10;99.90;;;;;;5033108;28;20252;-86
2022/07/30 04:36:40;;;;;;;7.00;5.10;;;19.20;99.90;;;;;;5044461;28;20560;-85
2022/07/30 04:39:06;;;;;;;8.47;5.37;;;19.20;99.90;;;;;;5039171;28;20436;-88
2022/07/30 04:41:32;;;;;;;7.23;4.33;;;19.50;99.90;;;;;;5035070;28;20451;-87
2022/07/30 04:43:57;;;;;;;7.27;4.53;;;20.60;99.90;;;;;;5029724;28;20437;-87
2022/07/30 04:46:23;;;;;;;7.97;4.80;;;21.30;99.90;;;;;;5027465;28;20874;-86
2022/07/30 04:48:49;;;;;;;9.37;4.43;;;22.00;99.90;;;;;;5039909;28;20208;-88
2022/07/30 04:51:22;;;;;;;6.27;4.70;;;22.60;99.90;;;;;;5032104;28;20198;-89
2022/07/30 04:53:51;;;;;;;9.97;4.90;;;23.30;99.90;;;;;;5021622;28;20548;-87
2022/07/30 04:56:18;;;;;;;11.60;4.70;;;25.60;99.90;;;;;;5034924;28;20890;-89
2022/07/30 04:58:44;;;;;;;9.97;5.03;;;25.30;99.90;;;;;;5034305;28;20448;-87
2022/07/30 05:01:14;;;;;;;6.13;4.80;;;25.00;99.90;;;;;;5033921;28;20476;-88
2022/07/30 05:03:41;;;;;;;9.00;5.10;;;25.00;99.90;;;;;;5034655;28;20436;-89
2022/07/30 05:06:07;;;;;;;10.83;6.07;;;25.20;99.90;;;;;;5032309;28;20429;-89
2022/07/30 05:08:33;;;;;;;7.33;5.93;;;25.40;99.90;;;;;;5025420;28;20448;-88
2022/07/30 05:10:59;;;;;;;6.77;5.70;;;25.70;99.70;;;;;;5014964;28;20520;-89
2022/07/30 05:13:24;;;;;;;11.10;5.60;;;25.20;98.70;;;;;;5010711;28;20220;-85
2022/07/30 05:15:50;;;;;;;7.07;5.90;;;26.00;97.80;;;;;;5011628;28;20178;-88
2022/07/30 05:18:15;;;;;;;7.97;5.80;;;27.20;94.60;;;;;;5009412;28;20210;-88
2022/07/30 05:20:41;;;;;;;8.70;5.20;;;;;;;;;;5030366;28;20208;-88
2022/07/30 05:23:07;;;;;;;8.70;5.40;;;26.60;93.30;;;;;;5032613;28;20181;-89
2022/07/30 05:25:33;;;;;;;12.43;5.23;;;27.00;92.90;;;;;;5026374;28;20441;-87
2022/07/30 05:27:58;;;;;;;9.00;5.73;;;27.70;92.50;;;;;;5033559;28;20194;-88
2022/07/30 05:30:25;;;;;;;8.60;5.10;;;28.40;90.70;;;;;;5007813;28;20565;-85
2022/07/30 05:32:50;;;;;;;5.90;4.80;;;28.00;88.20;;;;;;5025579;28;20553;-85
2022/07/30 05:35:16;;;;;;;8.10;5.57;;;28.60;86.90;;;;;;5026806;28;20436;-86
2022/07/30 05:37:41;;;;;;;8.50;5.40;;;28.70;84.60;;;;;;5009799;28;20181;-86
2022/07/30 05:40:08;;;;;;;5.70;4.80;;;28.30;84.60;;;;;;5007187;28;20294;-88
2022/07/30 05:42:33;;;;;;;9.37;5.70;;;27.90;85.30;;;;;;5014635;28;20192;-87
2022/07/30 05:44:59;;;;;;;8.00;5.47;;;28.50;84.20;;;;;;5025488;28;20894;-88
2022/07/30 05:47:25;;;;;;;6.63;5.37;;;29.50;82.30;;;;;;5004785;28;20198;-90
2022/07/30 05:49:51;;;;;;;6.17;5.20;;;29.80;79.20;;;;;;5026927;28;20288;-89
2022/07/30 05:52:17;;;;;;;6.73;5.00;;;28.40;78.10;;;;;;5015355;28;20804;-89
2022/07/30 05:54:43;;;;;;;10.10;5.23;;;28.30;82.00;;;;;;5010704;28;20440;-88
2022/07/30 05:57:09;;;;;;;5.63;4.90;;;29.30;81.30;;;;;;5027296;28;20179;-87
2022/07/30 05:59:34;;;;;;;7.33;5.00;;;29.60;78.20;;;;;;5009436;28;20209;-86
2022/07/30 06:02:01;;;;;;;9.30;5.20;;;30.40;74.50;;;;;;5034413;28;20189;-87
2022/07/30 06:04:27;;;;;;;9.43;5.73;;;29.60;73.70;;;;;;5035902;28;20655;-89
2022/07/30 06:06:53;;;;;;;7.17;5.00;;;30.00;75.10;;;;;;5018590;28;20417;-90
2022/07/30 06:09:19;;;;;;;7.03;5.60;;;29.80;75.20;;;;;;5010585;28;20595;-89
2022/07/30 06:11:44;;;;;;;7.47;5.53;;;;;;;;;;5017071;28;20284;-86
2022/07/30 06:14:11;;;;;;;10.07;4.70;;;30.40;72.80;;;;;;5018960;28;20607;-87
2022/07/30 06:16:37;;;;;;;6.33;5.57;;;29.70;69.80;;;;;;5020136;28;20401;-89
2022/07/30 06:19:03;;;;;;;10.60;5.27;;;29.70;71.70;;;;;;5017868;28;20461;-87
2022/07/30 06:21:30;;;;;;;5.67;5.07;;;30.30;71.80;;;;;;5035498;28;20619;-88
2022/07/30 06:23:56;;;;;;;8.00;5.10;;;30.30;70.70;;;;;;5024490;28;20440;-88
2022/07/30 06:26:21;;;;;;;9.57;5.77;;;31.20;68.70;;;;;;5034719;28;21043;-87
2022/07/30 06:28:47;;;;;;;6.50;5.30;;;;;;;;;;5019790;28;20202;-88
2022/07/30 06:31:18;;;;;;;7.73;6.10;;;29.90;68.30;;;;;;5021941;28;20470;-87
2022/07/30 06:33:43;;;;;;;7.70;5.73;;;29.60;70.40;;;;;;5021500;28;20467;-88
2022/07/30 06:36:09;;;;;;;10.87;5.60;;;29.50;70.70;;;;;;5038841;28;20393;-86
2022/07/30 06:38:36;;;;;;;11.67;5.10;;;29.60;70.40;;;;;;5023582;28;20255;-87
2022/07/30 06:41:02;;;;;;;7.43;4.93;;;30.10;68.10;;;;;;5041655;28;20167;-88
2022/07/30 06:43:27;;;;;;;8.43;5.33;;;30.10;67.60;;;;;;5034966;28;20967;-87
2022/07/30 06:45:54;;;;;;;6.57;5.67;;;30.50;68.80;;;;;;5043696;28;20224;-87
2022/07/30 06:48:20;;;;;;;9.17;5.60;;;30.00;67.40;;;;;;5017275;28;20333;-87
2022/07/30 06:50:46;;;;;;;7.70;5.17;;;30.00;68.10;;;;;;5024708;28;20518;-86
2022/07/30 06:53:12;;;;;;;7.50;5.20;;;;;;;;;;5038247;28;20396;-88
2022/07/30 06:55:37;;;;;;;8.03;5.57;;;31.50;65.20;;;;;;5021533;28;20213;-85
2022/07/30 06:58:09;;;;;;;9.67;5.80;;;32.10;63.30;;;;;;5018308;28;20405;-88
2022/07/30 07:00:34;;;;;;;6.83;5.10;;;31.10;63.30;;;;;;5002072;28;20229;-89
2022/07/30 07:03:00;;;;;;;12.57;5.03;;;30.00;64.70;;;;;;5058490;28;20898;-86
2022/07/30 07:05:27;;;;;;;8.57;4.83;;;30.60;66.90;;;;;;5058819;28;20173;-87
2022/07/30 07:07:53;;;;;;;7.77;5.27;;;30.10;64.80;;;;;;5040693;28;20212;-86
2022/07/30 07:10:19;;;;;;;8.27;5.57;;;30.00;66.40;;;;;;5039744;28;20597;-87
2022/07/30 07:12:45;;;;;;;8.00;4.50;;;31.40;63.20;;;;;;5031662;28;20210;-87
2022/07/30 07:15:11;;;;;;;11.17;6.37;;;32.90;62.60;;;;;;5022426;28;20441;-86
2022/07/30 07:17:36;;;;;;;6.87;4.70;;;32.50;60.40;;;;;;5002563;28;20213;-87
2022/07/30 07:20:03;;;;;;;10.63;5.43;;;31.10;61.60;;;;;;5004825;28;20200;-85
2022/07/30 07:22:29;;;;;;;7.03;5.10;;;31.50;61.00;;;;;;5012494;28;20183;-86
2022/07/30 07:24:54;;;;;;;6.70;4.83;;;31.20;61.20;;;;;;5018288;28;20445;-86
2022/07/30 07:27:20;;;;;;;6.03;5.43;;;31.60;62.00;;;;;;5018596;28;20566;-86
2022/07/30 07:29:46;;;;;;;8.57;5.20;;;31.90;61.10;;;;;;5018010;28;20211;-87
2022/07/30 07:32:11;;;;;;;7.33;4.50;;;32.50;60.10;;;;;;5003142;28;20184;-87
2022/07/30 07:34:37;;;;;;;6.03;5.43;;;32.70;60.80;;;;;;5023205;28;20192;-86
2022/07/30 07:37:02;;;;;;;6.07;5.00;;;31.60;58.90;;;;;;5019539;28;20195;-83
2022/07/30 07:39:28;;;;;;;10.33;5.17;;;31.10;62.10;;;;;;5003502;28;20209;-86
2022/07/30 07:41:53;;;;;;;11.43;6.00;;;30.20;62.50;;;;;;5002650;28;20190;-88
2022/07/30 07:44:19;;;;;;;12.00;4.90;;;30.70;62.60;;;;;;5012949;28;20257;-86
2022/07/30 07:46:44;;;;;;;9.37;6.90;;;30.50;63.50;;;;;;5003733;28;20245;-84
2022/07/30 07:49:10;;;;;;;5.17;4.23;;;31.00;62.60;;;;;;5012886;28;20269;-87
2022/07/30 07:51:35;;;;;;;8.93;5.77;;;31.30;61.70;;;;;;5019950;28;20223;-87
2022/07/30 07:54:01;;;;;;;12.23;6.67;;;32.20;60.30;;;;;;5024726;28;20205;-86
2022/07/30 07:56:27;;;;;;;12.10;5.67;;;32.90;60.10;;;;;;5026506;28;20198;-83
2022/07/30 07:58:53;;;;;;;7.57;6.83;;;32.50;58.70;;;;;;5023761;28;20219;-85
2022/07/30 08:01:20;;;;;;;7.83;7.07;;;31.40;59.20;;;;;;5018975;28;20192;-83
2022/07/30 08:03:46;;;;;;;7.93;6.20;;;31.80;60.00;;;;;;5018840;28;20219;-86
2022/07/30 08:06:11;;;;;;;8.63;6.10;;;32.00;60.30;;;;;;5019935;28;20445;-85
2022/07/30 08:08:37;;;;;;;10.50;6.97;;;33.20;59.50;;;;;;5005660;28;20457;-83
2022/07/30 08:11:04;;;;;;;9.03;6.97;;;32.50;57.70;;;;;;5005201;28;20262;-82
2022/07/30 08:13:29;;;;;;;7.10;6.50;;;31.90;58.20;;;;;;5001433;28;20685;-84
2022/07/30 08:15:55;;;;;;;6.50;5.83;;;32.50;58.40;;;;;;5006586;28;20435;-85
2022/07/30 08:18:20;;;;;;;8.47;5.93;;;33.30;56.00;;;;;;5012369;28;20195;-87
2022/07/30 08:20:46;;;;;;;7.03;6.17;;;33.40;56.30;;;;;;5006452;28;20188;-84
2022/07/30 08:23:11;;;;;;;10.03;6.93;;;34.10;55.10;;;;;;5008757;28;20184;-86
2022/07/30 08:25:37;;;;;;;7.83;6.70;;;32.60;53.60;;;;;;5005595;28;20201;-85
2022/07/30 08:28:03;;;;;;;8.33;7.00;;;31.70;54.70;;;;;;5006584;28;20196;-81
2022/07/30 08:30:29;;;;;;;23.73;7.80;;;30.90;56.60;;;;;;5001410;28;20242;-86
2022/07/30 08:32:54;;;;;;;7.63;6.83;;;31.30;56.70;;;;;;5009615;28;20858;-87
2022/07/30 08:35:20;;;;;;;8.60;6.00;;;31.80;56.70;;;;;;5006701;28;20443;-85
2022/07/30 08:37:46;;;;;;;12.40;7.80;;;32.50;55.70;;;;;;5018784;28;20185;-83
2022/07/30 08:40:11;;;;;;;10.13;6.87;;;33.60;55.90;;;;;;5023647;28;20211;-87
2022/07/30 08:42:37;;;;;;;7.07;6.47;;;34.80;53.10;;;;;;5015252;28;20219;-87
2022/07/30 08:45:03;;;;;;;8.00;7.20;;;34.00;53.10;;;;;;5014274;28;20198;-86
2022/07/30 08:47:33;;;;;;;7.37;6.67;;;32.80;52.50;;;;;;5018573;28;21284;-85
2022/07/30 08:50:03;;;;;;;8.10;7.40;;;33.00;52.20;;;;;;5019142;28;20503;-84
2022/07/30 08:52:34;;;;;;;8.70;6.47;;;33.20;52.90;;;;;;5002511;28;20439;-86
2022/07/30 08:55:01;;;;;;;6.90;6.20;;;33.20;52.60;;;;;;5022559;28;20563;-83
2022/07/30 08:57:30;;;;;;;7.30;6.70;;;33.70;53.20;;;;;;5014593;28;20438;-85
2022/07/30 08:59:57;;;;;;;9.93;7.37;;;35.10;49.60;;;;;;5006875;28;20513;-85
2022/07/30 09:02:23;;;;;;;9.40;7.40;;;35.60;49.50;;;;;;5020323;28;20786;-84
2022/07/30 09:04:48;;;;;;;10.10;6.70;;;33.20;50.70;;;;;;5015146;28;20463;-83
2022/07/30 09:07:14;;;;;;;9.47;7.20;;;33.20;52.30;;;;;;5012342;28;21267;-85
2022/07/30 09:09:40;;;;;;;7.23;6.50;;;31.90;49.80;;;;;;5018570;28;20205;-83
2022/07/30 09:12:34;;;;;;;9.33;6.83;;;30.80;52.90;;;;;;5022410;28;20207;-82
2022/07/30 09:15:18;;;;;;;8.20;7.37;;;31.30;53.40;;;;;;5010169;28;20175;-85
2022/07/30 09:18:02;;;;;;;7.63;6.93;;;31.00;53.20;;;;;;5023295;28;20435;-83
2022/07/30 09:20:32;;;;;;;10.70;6.90;;;30.70;53.90;;;;;;5005651;28;22479;-85
2022/07/30 09:23:00;;;;;;;10.80;6.77;;;28.80;55.20;;;;;;5021686;28;20970;-84
2022/07/30 09:25:36;;;;;;;6.00;5.40;;;28.30;58.00;;;;;;5020027;28;20478;-82
2022/07/30 09:28:02;;;;;;;10.83;5.97;;;29.50;58.00;;;;;;5021665;28;20480;-83
2022/07/30 09:30:46;;;;;;;7.87;6.43;;;30.90;56.20;;;;;;4999573;28;20903;-82
2022/07/30 09:33:12;;;;;;;8.03;6.43;;;32.50;54.40;;;;;;5002289;28;20434;-82
2022/07/30 09:35:38;;;;;;;10.17;7.90;;;32.40;50.50;;;;;;5017600;28;20447;-82
2022/07/30 09:38:05;;;;;;;8.57;6.83;;;30.50;53.90;;;;;;5005881;28;20446;-86
2022/07/30 09:40:31;;;;;;;14.93;7.20;;;30.80;54.80;;;;;;5024802;28;20514;-88
2022/07/30 09:43:06;;;;;;;7.60;6.97;;;32.30;53.10;;;;;;5021158;28;20439;-83
2022/07/30 09:45:33;;;;;;;7.90;6.60;;;32.10;51.60;;;;;;5021051;28;20203;-85
2022/07/30 09:47:58;;;;;;;7.23;6.63;;;32.50;52.60;;;;;;5017778;28;20441;-87
2022/07/30 09:50:25;;;;;;;11.63;7.40;;;33.50;51.40;;;;;;5020852;28;20475;-83
2022/07/30 09:52:51;;;;;;;11.13;7.30;;;33.20;51.20;;;;;;5016166;28;20177;-85
2022/07/30 09:55:32;;;;;;;9.43;8.10;;;32.80;50.00;;;;;;5002527;28;20469;-85
2022/07/30 09:58:02;;;;;;;8.73;7.47;;;32.30;51.50;;;;;;5005372;28;20439;-87
2022/07/30 10:00:29;;;;;;;10.33;6.90;;;31.60;52.40;;;;;;5017788;28;20488;-84
2022/07/30 10:02:55;;;;;;;7.70;7.03;;;32.10;52.30;;;;;;5019055;28;20466;-85
2022/07/30 10:05:21;;;;;;;8.67;7.77;;;34.10;50.20;;;;;;5019482;28;20874;-85
2022/07/30 10:07:56;;;;;;;8.40;7.20;;;34.60;48.80;;;;;;5021376;28;20224;-85
2022/07/30 10:10:24;;;;;;;7.70;7.10;;;32.90;49.70;;;;;;5016690;28;20463;-83
2022/07/30 10:13:01;;;;;;;11.30;6.33;;;31.10;51.60;;;;;;5019067;28;20441;-85
2022/07/30 10:15:35;;;;;;;9.63;6.83;;;30.00;54.70;;;;;;5015736;28;20461;-84
2022/07/30 10:18:02;;;;;;;7.00;6.40;;;31.00;54.30;;;;;;5004720;28;20454;-86
2022/07/30 10:20:28;;;;;;;7.60;6.80;;;32.00;51.70;;;;;;5012685;28;20487;-85
2022/07/30 10:22:54;;;;;;;8.23;6.80;;;31.30;52.10;;;;;;5004534;28;20463;-83
2022/07/30 10:25:22;;;;;;;6.57;6.00;;;31.70;52.10;;;;;;5004257;28;20450;-83
2022/07/30 10:27:48;;;;;;;8.83;5.83;;;31.90;52.70;;;;;;5017647;28;20272;-82
2022/07/30 10:30:14;;;;;;;6.77;6.20;;;31.70;52.20;;;;;;5000028;28;20565;-84
2022/07/30 10:32:40;;;;;;;7.00;6.13;;;29.90;51.50;;;;;;5005177;28;20443;-83
2022/07/30 10:35:07;;;;;;;12.13;5.27;;;29.10;54.90;;;;;;5016121;28;20455;-84
2022/07/30 10:37:35;;;;;;;8.20;4.97;;;29.00;55.30;;;;;;5019603;28;20211;-85
2022/07/30 10:40:20;;;;;;;4.63;3.93;;;28.40;56.10;;;;;;4997167;28;20457;-85
2022/07/30 10:42:51;;;;;;;9.07;5.60;;;28.60;56.90;;;;;;5009817;28;20446;-84
2022/07/30 10:45:30;;;;;;;7.50;5.37;;;28.10;56.40;;;;;;5011795;28;20567;-86
2022/07/30 10:47:56;;;;;;;8.40;3.97;;;28.00;57.30;;;;;;5018659;28;20440;-85
2022/07/30 10:50:27;;;;;;;5.43;3.47;;;28.10;56.30;;;;;;5016480;28;20466;-86
2022/07/30 10:53:00;;;;;;;4.73;4.23;;;28.30;55.20;;;;;;5007010;28;20528;-84
2022/07/30 10:55:28;;;;;;;7.50;4.50;;;27.80;55.80;;;;;;5005944;28;20437;-84
2022/07/30 10:58:02;;;;;;;8.40;5.10;;;27.40;56.50;;;;;;4997010;28;20454;-83
2022/07/30 11:00:30;;;;;;;4.80;4.30;;;27.30;57.40;;;;;;4993379;28;20508;-82
2022/07/30 11:03:24;;;;;;;6.23;4.17;;;27.20;56.80;;;;;;5012653;28;20469;-84
2022/07/30 11:06:10;;;;;;;4.70;2.90;;;27.50;56.40;;;;;;5013840;28;20448;-82
2022/07/30 11:08:38;;;;;;;6.63;4.17;;;28.00;56.90;;;;;;5007605;28;20925;-79
2022/07/30 11:11:20;;;;;;;8.20;3.70;;;27.60;54.90;;;;;;5006146;28;20451;-82
2022/07/30 11:13:50;;;;;;;6.63;4.17;;;27.60;55.90;;;;;;5009813;28;20819;-82
2022/07/30 11:16:19;;;;;;;4.70;3.43;;;27.50;55.30;;;;;;5002782;28;20433;-82
2022/07/30 11:19:19;;;;;;;4.63;4.23;;;28.00;55.60;;;;;;5009170;28;20467;-84
2022/07/30 11:21:48;;;;;;;5.53;4.37;;;27.60;55.00;;;;;;4972478;28;22650;-82
2022/07/30 11:24:46;;;;;;;4.70;3.87;;;27.50;55.70;;;;;;5008258;28;20494;-80
2022/07/30 11:27:40;;;;;;;3.77;3.47;;;27.70;56.90;;;;;;5008642;28;20436;-80
2022/07/30 11:30:26;;;;;;;3.70;3.40;;;28.30;55.80;;;;;;5016468;28;20451;-80
2022/07/30 11:32:54;;;;;;;3.93;3.53;;;28.20;56.30;;;;;;5009101;28;20445;-82
2022/07/30 11:35:24;;;;;;;4.63;3.67;;;27.80;54.50;;;;;;5007512;28;21012;-80
2022/07/30 11:38:16;;;;;;;4.87;3.90;;;27.60;56.60;;;;;;5008123;28;20543;-83
2022/07/30 11:40:43;;;;;;;3.97;3.57;;;27.80;56.90;;;;;;5017142;28;20450;-81
2022/07/30 11:43:24;;;;;;;6.73;3.77;;;28.20;57.10;;;;;;5016496;28;20432;-83
2022/07/30 11:46:13;;;;;;;5.20;3.80;;;28.20;56.70;;;;;;5016908;28;20452;-83
2022/07/30 11:48:41;;;;;;;3.77;3.40;;;27.30;55.60;;;;;;5007827;28;20982;-84
2022/07/30 11:51:07;;;;;;;5.90;3.67;;;27.00;57.20;;;;;;5027742;28;20491;-82
2022/07/30 11:53:33;;;;;;;8.30;3.70;;;27.30;58.30;;;;;;5017872;28;20473;-83
2022/07/30 11:56:01;;;;;;;6.63;3.83;;;27.40;58.30;;;;;;5011152;28;20440;-83
2022/07/30 11:58:31;;;;;;;4.57;4.10;;;28.10;57.60;;;;;;5000379;28;20429;-83
2022/07/30 12:01:00;;;;;;;9.77;4.27;;;28.10;58.10;;;;;;5010539;28;20827;-82
2022/07/30 12:03:27;;;;;;;5.10;3.80;;;27.60;57.10;;;;;;5009718;28;20431;-83
2022/07/30 12:05:54;;;;;;;5.03;3.77;;;27.00;58.20;;;;;;5017688;28;20530;-82
2022/07/30 12:08:20;;;;;;;4.90;3.50;;;27.50;59.90;;;;;;5006885;28;20451;-84
2022/07/30 12:10:58;;;;;;;5.60;3.83;;;27.50;60.30;;;;;;5018146;28;20483;-82
2022/07/30 12:13:24;;;;;;;4.80;3.93;;;27.10;58.80;;;;;;5021590;28;20469;-84
2022/07/30 12:15:50;;;;;;;4.83;4.00;;;;;;;;;;5000790;28;20440;-83
2022/07/30 12:18:27;;;;;;;3.83;3.53;;;26.90;60.00;;;;;;5018744;28;20237;-84
2022/07/30 12:20:57;;;;;;;4.27;3.83;;;26.90;60.50;;;;;;5003912;28;20440;-82
2022/07/30 12:23:23;;;;;;;5.93;3.23;;;27.20;59.90;;;;;;5019409;28;20439;-83
2022/07/30 12:25:50;;;;;;;4.07;3.77;;;27.40;61.00;;;;;;5010232;28;20949;-81
2022/07/30 12:28:21;;;;;;;4.10;3.80;;;27.60;58.30;;;;;;5019161;28;20458;-83
2022/07/30 12:30:46;;;;;;;4.37;4.00;;;27.60;58.90;;;;;;5017018;28;21005;-82
2022/07/30 12:33:12;;;;;;;4.67;3.80;;;27.60;58.60;;;;;;5017876;28;20470;-83
2022/07/30 12:35:45;;;;;;;9.53;4.43;;;27.90;59.50;;;;;;5018317;28;20192;-82
2022/07/30 12:38:11;;;;;;;5.60;3.57;;;28.10;58.90;;;;;;5019526;28;20183;-80
2022/07/30 12:40:58;;;;;;;6.90;3.70;;;28.30;57.30;;;;;;5012258;28;20465;-84
2022/07/30 12:43:51;;;;;;;9.37;5.03;;;28.00;57.90;;;;;;5013371;28;21009;-83
2022/07/30 12:46:26;;;;;;;5.70;3.80;;;27.80;57.40;;;;;;5011376;28;21527;-82
2022/07/30 12:49:00;;;;;;;5.40;4.20;;;27.70;59.80;;;;;;5014995;28;20524;-83
2022/07/30 12:51:31;;;;;;;7.93;3.90;;;27.80;60.00;;;;;;5006082;28;20490;-81
2022/07/30 12:53:59;;;;;;;4.47;4.00;;;27.80;59.80;;;;;;5017907;28;20512;-84
2022/07/30 12:56:28;;;;;;;5.40;3.90;;;28.20;58.70;;;;;;5013684;28;20431;-82